Thunder radar more information blitzortung!


Rain radar  rain snow radar



Ingen spesiell oppmerksomhet nødvendig.    Det er ingen advarsler

Nearby METAR Reports

   
ENZV - Stavanger
Oppdatert: Oct 19 2018 2:50 pm
For det meste Overskyet  
For det meste Overskyet  
   Vind: SSØ 4.6 m/s
Vind: SSØ 4.6 m/s
Temperatur: 11°C
Duggpunkt: 7°C
Luftfuktighet: 77%
Barometer: 1022 hPa
Skyer: Mostly Cloudy
Sikt: More then 10 km
Detaljer skyer: Delvis overskyet 2500 ft,
For det meste Overskyet 3600 ft
ENZV 191250Z 16009KT 9999 SCT025 BKN036 11/07 Q1022 NOSIG
ENCN - Kristiansand
Oppdatert: Oct 19 2018 2:50 pm
Noen skyer  
Noen skyer  
   Vind: VNV 3.1 m/s
Vind: VNV 3.1 m/s
Temperatur: 12°C
Duggpunkt: 4°C
Luftfuktighet: 58%
Barometer: 1023 hPa
Skyer: Few Clouds
Sikt: More then 10 km
Detaljer skyer: Noen skyer 1500 ft
ENCN 191250Z 29006KT 250V320 9999 FEW015 12/04 Q1023
ENBR - Bergen
Oppdatert: Oct 19 2018 2:50 pm
For det meste Overskyet  
For det meste Overskyet  
   Vind: SSØ 7.2 m/s
Vind: SSØ 7.2 m/s
Temperatur: 10°C
Wind Chill: 7°C
Duggpunkt: 5°C
Luftfuktighet: 71%
Barometer: 1020 hPa
Skyer: Mostly Cloudy
Sikt: More then 10 km
Detaljer skyer: Noen skyer 2300 ft,
Delvis overskyet 3500 ft,
For det meste Overskyet 4700 ft
ENBR 191250Z 15014KT 9999 FEW023 SCT035 BKN047 10/05 Q1020 NOSIG RMK WIND 1200FT 14025KT
ENGM - Oslo
Oppdatert: Oct 19 2018 2:50 pm
Klart  
Klart  
   Vind: SSØ 1.5 m/s
Vind: SSØ 1.5 m/s
Temperatur: 7°C
Wind Chill: 6°C
Duggpunkt: 2°C
Luftfuktighet: 71%
Barometer: 1021 hPa
Sikt: More then 10 km
Detaljer skyer: Klart ft
ENGM 191250Z 16003KT 120V200 CAVOK 07/02 Q1021 NOSIG
ENVA - Trondheim
Oppdatert: Oct 19 2018 2:50 pm
Delvis overskyet  
Delvis overskyet  
   Vind: Øst 4.6 m/s
Vind: Øst 4.6 m/s
Temperatur: 10°C
Wind Chill: 8°C
Duggpunkt: 7°C
Luftfuktighet: 82%
Barometer: 1019 hPa
Skyer: Partly Cloudy
Sikt: More then 10 km
Detaljer skyer: Noen skyer 2500 ft,
Delvis overskyet 4600 ft
ENVA 191250Z 10009KT 9999 FEW025 SCT046 10/07 Q1019 NOSIG RMK WIND 670FT 13007KT
ENTC - Tromsø
Oppdatert: Oct 19 2018 2:50 pm
Lett Regn, For det meste Overskyet  
Lett Regn, For det meste Overskyet  
   Vind: VEST 3.1 m/s
Vind: VEST 3.1 m/s
Temperatur: 7°C
Wind Chill: 5°C
Duggpunkt: 4°C
Luftfuktighet: 81%
Barometer: 1012 hPa
Skyer: Mostly Cloudy
Sikt: More then 10 km
Detaljer skyer: Noen skyer 600 ft,
Delvis overskyet 1100 ft,
For det meste Overskyet 1700 ft
ENTC 191250Z 26006KT 9999 -RA FEW006 SCT011 BKN017 07/04 Q1012 TEMPO BKN014 RMK WIND 2600FT 28008KT

Script utviklet av  Saratoga-weather.org Tilpasset for tamplaten av  Weerstation Leuven

Du finner vår vær info også på:

European Weather Network

WeatherCloud

Weather Underground

AWEKAS

HAMweather, WeatherForYou, PWS Weather

Utrustning vi bruker:

vær-station
Davis VP2

vær-programmet
Weather Display

Davis VP2

Weather Display